Aérodrome :
LOGIN :

S'inscrire | Disclaimer

   EN    FR    IT 

 










Légende :    VFR   VFR Marginal   IFR   IFR Intensif   IFR Très Intensif
Visi : 
Plafond : 
>= 8 km
>= 3000ft
5 à 8 km
1000 à 3000 ft
1500m à 5 km
500 à 1000 ft
800 à 1500m
200 à 500 ft
< 800m
< 200 ft
Symboles :   Orages  Brouillard  Fortes neiges  Fortes précipitations  Vent > 20 kt
SIGMETs :   Divers  Orages  Givrage  Turbulence  Onde Orograph.  Cendres Volcan.






- Altitude de l'aérodrome : 362 ft
- Code IATA : WAW


EPWA - Warsaw Okecie

DERNIER METAR :
  • 310730Z 01015KT 9999 FEW033 17/09 Q1011 NOSIG

METARs EXPIRÉS :
  • 310700Z 02015KT 9999 FEW033 16/09 Q1011 NOSIG
  • 310630Z 02016KT 350V050 9999 FEW033 15/08 Q1011 NOSIG
  • 310600Z 01013KT 9999 FEW034 15/09 Q1010 NOSIG
  • 310530Z 36013KT CAVOK 14/08 Q1010 NOSIG
  • 310500Z 36012KT CAVOK 13/09 Q1010 NOSIG

TAF TAF EPWA
Valide du 31 à 06h jusqu'au 01 à 06h UTC


310530Z 3106/0106 36012KT CAVOK
TEMPO 3106/3118 02016G26KT



MET'MAP, la Météo Aéronautique d'un coup d'oeil ! - Copyright ORBIFLY Décembre 2007 - Disclaimer

ORBIFLY MET'MAP TEAM :

Programmation & Développement : Alexandra Zaïnal
Sur une idée originale de : Baudouin d'Aumeries
Assistance à la programmation : Marc-Olivier Méhu
Soutien technique & logistique : Manuel Goepfert

Contact : metmap@orbifly.com




SOURCES & CREDITS :

   NOAA